Time;durP1;ratioP1;P1;durP2;ratioP2;P2;SDS_P1;SDS_P2;PMS_P1;PMS_P2;Temp;Humidity;BMP_temperature;BMP_pressure;BME280_temperature;BME280_humidity;BME280_pressure;Samples;Min_cycle;Max_cycle;Signal;HPM_P1;HPM_P2
2022/07/01 00:01:39;;;;;;;7.20;6.68;;;;;;;18.07;100.00;100958.91;4973011;28;20622;-48
2022/07/01 00:04:06;;;;;;;8.60;7.85;;;;;;;18.01;100.00;100957.47;4955214;28;20248;-48
2022/07/01 00:06:32;;;;;;;8.15;7.47;;;;;;;17.98;100.00;100954.09;4972735;28;20628;-51
2022/07/01 00:08:57;;;;;;;6.95;6.35;;;;;;;18.00;100.00;100957.59;4972572;28;20301;-49
2022/07/01 00:11:23;;;;;;;7.10;6.43;;;;;;;18.07;100.00;100948.91;4972537;28;20269;-47
2022/07/01 00:13:49;;;;;;;6.93;6.32;;;;;;;18.04;100.00;100954.56;4972152;28;20178;-48
2022/07/01 00:16:14;;;;;;;7.88;7.10;;;;;;;17.97;100.00;100950.50;4955532;28;20252;-49
2022/07/01 00:18:40;;;;;;;7.25;6.65;;;;;;;18.09;100.00;100949.69;4972679;28;20170;-49
2022/07/01 00:21:06;;;;;;;7.60;6.90;;;;;;;18.16;100.00;100951.97;4955497;28;20355;-47
2022/07/01 00:23:32;;;;;;;8.15;7.55;;;;;;;18.17;100.00;100951.00;4971900;28;20193;-49
2022/07/01 00:25:57;;;;;;;8.15;7.45;;;;;;;18.21;100.00;100953.38;4972235;28;20158;-48
2022/07/01 00:28:23;;;;;;;8.77;7.88;;;;;;;18.22;100.00;100948.84;4972479;28;20216;-47
2022/07/01 00:30:49;;;;;;;9.32;8.52;;;;;;;18.25;100.00;100948.63;4972384;28;20180;-49
2022/07/01 00:33:14;;;;;;;9.77;8.90;;;;;;;18.24;100.00;100947.78;4972082;28;20169;-46
2022/07/01 00:35:40;;;;;;;10.18;9.00;;;;;;;18.22;100.00;100936.16;4955182;28;20214;-46
2022/07/01 00:38:05;;;;;;;10.00;8.82;;;;;;;18.17;100.00;100935.63;4972288;28;20204;-47
2022/07/01 00:40:31;;;;;;;11.65;10.00;;;;;;;18.16;100.00;100933.00;4972317;28;20182;-45
2022/07/01 00:42:56;;;;;;;10.40;9.50;;;;;;;18.18;100.00;100941.91;4971850;28;20181;-45
2022/07/01 00:45:22;;;;;;;11.55;10.45;;;;;;;18.16;100.00;100935.72;4972017;28;20208;-46
2022/07/01 00:47:49;;;;;;;12.02;10.88;;;;;;;18.15;100.00;100939.38;4972211;28;20297;-47
2022/07/01 00:50:15;;;;;;;13.13;11.82;;;;;;;18.13;100.00;100944.94;4972719;28;20174;-46
2022/07/01 00:52:43;;;;;;;11.43;10.32;;;;;;;18.22;100.00;100952.44;4991848;28;20344;-45
2022/07/01 00:55:11;;;;;;;12.63;11.50;;;;;;;18.24;100.00;100949.63;4990947;28;20204;-47
2022/07/01 00:57:38;;;;;;;12.35;11.27;;;;;;;18.25;100.00;100954.06;4973369;28;20210;-47
2022/07/01 01:00:09;;;;;;;12.15;10.93;;;;;;;18.27;100.00;100957.53;4991401;28;20188;-48
2022/07/01 01:02:35;;;;;;;12.85;11.68;;;;;;;18.29;100.00;100999.00;4991060;28;20170;-47
2022/07/01 01:05:03;;;;;;;13.35;12.10;;;;;;;18.37;100.00;101025.59;4991020;28;20208;-47
2022/07/01 01:07:29;;;;;;;12.60;11.45;;;;;;;18.45;100.00;101050.34;4990962;28;20729;-46
2022/07/01 01:09:55;;;;;;;12.60;11.40;;;;;;;18.36;100.00;101013.88;4991254;28;20176;-47
2022/07/01 01:12:21;;;;;;;12.05;11.00;;;;;;;18.42;100.00;101016.16;4991297;28;20214;-47
2022/07/01 01:14:48;;;;;;;12.85;11.55;;;;;;;18.46;100.00;101005.97;4990515;28;20169;-46
2022/07/01 01:17:15;;;;;;;12.23;11.07;;;;;;;18.55;100.00;100999.91;4991379;28;20700;-46
2022/07/01 01:19:42;;;;;;;11.00;10.10;;;;;;;18.61;100.00;101001.34;4990655;28;20501;-45
2022/07/01 01:22:08;;;;;;;10.23;9.38;;;;;;;18.70;100.00;101008.84;4990213;28;20284;-46
2022/07/01 01:24:36;;;;;;;11.75;10.65;;;;;;;18.70;100.00;101022.41;4990439;28;20504;-46
2022/07/01 01:27:05;;;;;;;12.07;10.95;;;;;;;18.67;100.00;101004.50;4990347;28;20209;-45
2022/07/01 01:29:31;;;;;;;11.43;10.45;;;;;;;18.66;100.00;101005.47;4973717;28;20174;-45
2022/07/01 01:31:57;;;;;;;11.00;10.10;;;;;;;18.70;100.00;101003.41;4990636;28;20181;-45
2022/07/01 01:34:22;;;;;;;10.57;9.63;;;;;;;18.76;100.00;100997.56;4972948;28;20236;-47
2022/07/01 01:36:48;;;;;;;12.23;11.23;;;;;;;18.69;100.00;100988.09;4990777;28;20607;-46
2022/07/01 01:39:16;;;;;;;10.85;9.95;;;;;;;18.71;100.00;100978.00;4990792;28;20568;-45
2022/07/01 01:41:43;;;;;;;12.13;11.02;;;;;;;18.68;100.00;100978.22;4990743;28;20192;-43
2022/07/01 01:44:08;;;;;;;10.80;9.90;;;;;;;18.73;100.00;100967.91;4990298;28;20173;-43
2022/07/01 01:46:34;;;;;;;12.98;11.65;;;;;;;18.66;100.00;100955.75;4990249;28;20220;-41
2022/07/01 01:49:00;;;;;;;13.38;12.23;;;;;;;18.51;100.00;100958.56;4990641;28;20189;-46
2022/07/01 01:51:27;;;;;;;11.50;10.45;;;;;;;18.55;100.00;100963.78;4990460;28;20433;-44
2022/07/01 01:53:52;;;;;;;11.85;10.75;;;;;;;18.51;100.00;100966.69;4989986;28;20176;-42
2022/07/01 01:56:31;;;;;;;11.93;10.73;;;;;;;18.46;100.00;100968.88;4973075;28;20292;-43
2022/07/01 01:58:57;;;;;;;11.57;10.45;;;;;;;18.45;100.00;100971.66;4983561;28;20207;-42
2022/07/01 02:01:22;;;;;;;12.30;11.25;;;;;;;18.36;100.00;100969.59;4990325;28;20169;-42
2022/07/01 02:03:49;;;;;;;13.38;12.10;;;;;;;18.46;100.00;100954.44;4989532;28;20662;-43
2022/07/01 02:06:16;;;;;;;12.75;11.65;;;;;;;18.26;100.00;100924.13;4990615;28;20181;-42
2022/07/01 02:08:42;;;;;;;14.32;13.02;;;;;;;18.14;100.00;100897.84;4990355;28;20659;-41
2022/07/01 02:11:08;;;;;;;15.02;13.60;;;;;;;18.19;100.00;100906.56;4990445;28;20279;-42
2022/07/01 02:13:35;;;;;;;15.93;14.38;;;;;;;18.15;100.00;100913.16;4990452;28;20212;-41
2022/07/01 02:16:00;;;;;;;15.50;14.10;;;;;;;18.17;100.00;100913.03;4990460;28;20212;-41
2022/07/01 02:18:26;;;;;;;18.08;15.45;;;;;;;18.08;100.00;100915.41;4990642;28;20208;-40
2022/07/01 02:20:52;;;;;;;16.88;15.40;;;;;;;18.12;100.00;100913.34;4990313;28;20166;-41
2022/07/01 02:23:18;;;;;;;17.60;15.68;;;;;;;18.09;100.00;100922.56;4989815;28;20180;-41
2022/07/01 02:25:43;;;;;;;18.25;16.67;;;;;;;18.09;100.00;100922.56;4990453;28;20208;-41
2022/07/01 02:28:09;;;;;;;20.33;16.67;;;;;;;18.14;100.00;100922.25;4990267;28;20303;-41
2022/07/01 02:30:36;;;;;;;19.73;16.95;;;;;;;18.15;100.00;100914.97;4989997;28;20216;-41
2022/07/01 02:33:06;;;;;;;19.38;17.50;;;;;;;18.19;100.00;100919.22;4992926;28;20173;-41
2022/07/01 02:35:36;;;;;;;19.83;17.95;;;;;;;18.22;100.00;100913.59;4993965;28;20174;-40
2022/07/01 02:38:03;;;;;;;20.75;18.63;;;;;;;18.23;100.00;100915.31;4993790;28;20252;-42
2022/07/01 02:40:29;;;;;;;20.02;17.73;;;;;;;18.27;100.00;100906.88;4993544;28;20220;-41
2022/07/01 02:42:54;;;;;;;19.90;17.95;;;;;;;18.27;100.00;100900.59;4993736;28;20166;-41
2022/07/01 02:45:20;;;;;;;20.27;18.35;;;;;;;18.27;100.00;100904.16;4993457;28;20177;-42
2022/07/01 02:47:46;;;;;;;21.67;18.98;;;;;;;18.33;100.00;100892.03;4993544;28;20209;-42
2022/07/01 02:50:13;;;;;;;19.85;17.85;;;;;;;18.31;100.00;100902.09;4993533;28;20169;-43
2022/07/01 02:52:40;;;;;;;17.25;15.48;;;;;;;18.44;100.00;100900.28;4974149;28;20637;-42
2022/07/01 02:55:08;;;;;;;19.77;17.88;;;;;;;18.40;100.00;100889.75;4973759;28;20290;-42
2022/07/01 02:57:34;;;;;;;18.05;16.35;;;;;;;18.47;100.00;100889.19;4974168;28;20648;-44
2022/07/01 03:00:00;;;;;;;19.15;17.35;;;;;;;18.46;100.00;100881.19;4973803;28;20249;-42
2022/07/01 03:02:26;;;;;;;17.33;15.75;;;;;;;18.52;100.00;100869.91;4973860;28;20529;-43
2022/07/01 03:04:52;;;;;;;20.38;18.23;;;;;;;18.41;100.00;100875.19;4973767;28;20218;-43
2022/07/01 03:07:19;;;;;;;19.63;17.58;;;;;;;18.35;100.00;100890.06;4973741;28;20263;-43
2022/07/01 03:09:45;;;;;;;17.88;16.15;;;;;;;18.42;100.00;100894.09;4973676;28;20174;-43
2022/07/01 03:12:34;;;;;;;21.20;19.05;;;;;;;18.41;100.00;100915.88;4973577;28;20649;-40
2022/07/01 03:15:12;;;;;;;19.55;16.58;;;;;;;18.47;100.00;100916.31;4973587;28;20175;-43
2022/07/01 03:17:40;;;;;;;20.27;18.17;;;;;;;18.38;100.00;100916.97;4973500;28;20217;-43
2022/07/01 03:20:08;;;;;;;17.95;16.27;;;;;;;18.43;100.00;100927.50;4973450;28;20182;-43
2022/07/01 03:22:34;;;;;;;20.15;18.17;;;;;;;18.41;100.00;100927.63;4973564;28;20174;-42
2022/07/01 03:25:02;;;;;;;16.13;14.57;;;;;;;18.48;100.00;100934.34;4955602;28;20255;-43
2022/07/01 03:27:28;;;;;;;15.65;14.13;;;;;;;18.51;100.00;100952.25;4973363;28;20314;-42
2022/07/01 03:29:53;;;;;;;15.77;14.15;;;;;;;18.51;100.00;100939.56;4973037;28;20214;-43
2022/07/01 03:32:19;;;;;;;16.90;15.40;;;;;;;18.50;100.00;100943.25;4973489;28;20170;-43
2022/07/01 03:34:46;;;;;;;15.70;14.35;;;;;;;18.55;100.00;100945.66;4973354;28;20193;-43
2022/07/01 03:37:13;;;;;;;15.52;14.05;;;;;;;18.58;100.00;100933.69;4973323;28;20265;-43
2022/07/01 03:39:39;;;;;;;15.82;14.48;;;;;;;18.65;100.00;100943.16;4973023;28;20182;-42
2022/07/01 03:42:07;;;;;;;19.38;17.48;;;;;;;18.50;100.00;100951.41;4973738;28;20537;-42
2022/07/01 03:44:33;;;;;;;18.92;16.92;;;;;;;18.53;100.00;100951.16;4972280;28;20189;-42
2022/07/01 03:46:59;;;;;;;18.52;16.73;;;;;;;18.53;100.00;100945.75;4973381;28;20543;-43
2022/07/01 03:49:25;;;;;;;19.20;17.40;;;;;;;18.48;100.00;100956.06;4956149;28;20182;-42
2022/07/01 03:51:51;;;;;;;16.73;15.23;;;;;;;18.57;100.00;100949.13;4986867;28;20574;-43
2022/07/01 03:57:17;;;;;;;15.00;13.70;;;;;;;18.62;100.00;100955.09;4946893;28;20296;-42
2022/07/01 03:59:43;;;;;;;17.50;15.48;;;;;;;18.62;100.00;100959.66;4974193;28;20629;-41
2022/07/01 04:02:08;;;;;;;19.35;17.35;;;;;;;18.56;100.00;100951.94;4992427;28;20236;-42
2022/07/01 04:04:34;;;;;;;17.17;15.57;;;;;;;18.66;100.00;100950.31;4992207;28;20212;-42
2022/07/01 04:07:02;;;;;;;19.30;17.55;;;;;;;18.59;100.00;100960.75;4991916;28;20220;-42
2022/07/01 04:09:29;;;;;;;18.67;16.95;;;;;;;18.59;100.00;100971.59;4992545;28;20170;-43
2022/07/01 04:11:56;;;;;;;18.33;16.60;;;;;;;18.59;100.00;100976.16;4988442;28;20434;-43
2022/07/01 04:14:24;;;;;;;18.25;16.55;;;;;;;18.57;100.00;100983.53;4988503;28;20239;-44
2022/07/01 04:16:49;;;;;;;18.90;16.95;;;;;;;18.56;100.00;100998.94;4992153;28;20209;-41
2022/07/01 04:19:17;;;;;;;19.90;18.05;;;;;;;18.52;100.00;101011.00;4992173;28;20176;-43
2022/07/01 04:24:28;;;;;;;18.30;16.70;;;;;;;18.58;100.00;101010.53;4991583;28;20725;-42
2022/07/01 04:26:54;;;;;;;18.50;16.77;;;;;;;18.63;100.00;101026.50;4992179;28;20205;-44
2022/07/01 04:29:20;;;;;;;19.58;17.70;;;;;;;18.59;100.00;101019.59;4992164;28;20181;-42
2022/07/01 04:31:47;;;;;;;18.83;17.17;;;;;;;18.65;100.00;101016.41;4991799;28;20164;-42
2022/07/01 04:34:12;;;;;;;18.60;17.10;;;;;;;18.67;100.00;101014.47;4991504;28;20177;-42
2022/07/01 04:36:38;;;;;;;18.92;17.20;;;;;;;18.68;100.00;101027.09;4974425;28;20201;-42
2022/07/01 04:39:05;;;;;;;17.70;16.05;;;;;;;18.68;100.00;101027.94;4991533;28;20172;-42
2022/07/01 04:44:16;;;;;;;17.35;15.73;;;;;;;18.57;100.00;101025.09;4991301;28;20186;-42
2022/07/01 04:46:41;;;;;;;17.42;15.90;;;;;;;18.53;100.00;101019.00;4991796;28;20301;-44
2022/07/01 04:49:09;;;;;;;16.55;14.85;;;;;;;18.56;100.00;101030.63;4991838;28;20549;-42
2022/07/01 04:51:35;;;;;;;21.35;16.42;;;;;;;18.51;100.00;101026.38;4991104;28;20181;-42
2022/07/01 04:54:02;;;;;;;16.38;14.88;;;;;;;18.42;100.00;101039.72;4990858;28;20200;-43
2022/07/01 04:56:28;;;;;;;16.10;14.43;;;;;;;18.41;100.00;101040.69;4991526;28;20216;-42
2022/07/01 04:58:57;;;;;;;17.08;15.32;;;;;;;18.43;100.00;101046.88;4991578;28;20166;-43
2022/07/01 05:01:23;;;;;;;16.48;14.85;;;;;;;18.41;100.00;101057.84;4974035;28;20418;-43
2022/07/01 05:03:49;;;;;;;16.42;14.93;;;;;;;18.33;100.00;101046.63;4990954;28;20178;-43
2022/07/01 05:06:14;;;;;;;15.50;14.10;;;;;;;18.39;100.00;101070.66;4991342;28;20201;-45
2022/07/01 05:08:40;;;;;;;15.38;13.77;;;;;;;18.41;100.00;101074.13;4973647;28;20355;-44
2022/07/01 05:11:06;;;;;;;15.52;13.93;;;;;;;18.42;100.00;101075.00;4991124;28;20264;-43
2022/07/01 05:13:33;;;;;;;14.25;12.95;;;;;;;18.37;100.00;101067.16;4990973;28;20173;-43
2022/07/01 05:15:59;;;;;;;12.77;11.68;;;;;;;18.33;100.00;101062.91;4990858;28;20181;-43
2022/07/01 05:23:52;;;;;;;10.60;9.80;;;;;;;18.20;100.00;101062.84;4990904;28;20236;-43
2022/07/01 05:26:18;;;;;;;10.23;9.25;;;;;;;18.25;100.00;101062.53;4990955;28;20208;-43
2022/07/01 05:28:44;;;;;;;9.57;8.73;;;;;;;18.36;100.00;101059.13;4973114;28;20202;-43
2022/07/01 05:31:10;;;;;;;10.43;9.32;;;;;;;18.26;100.00;101059.75;4990822;28;20173;-43
2022/07/01 05:33:35;;;;;;;10.65;9.45;;;;;;;18.48;100.00;101051.03;4990669;28;20422;-43
2022/07/01 05:36:01;;;;;;;9.85;8.95;;;;;;;18.65;100.00;101062.56;4990515;28;20180;-43
2022/07/01 05:38:27;;;;;;;8.55;7.75;;;;;;;18.50;100.00;101061.78;4991045;28;20158;-42
2022/07/01 05:40:53;;;;;;;7.22;6.53;;;;;;;18.86;100.00;101066.53;4990587;28;20178;-42
2022/07/01 05:43:19;;;;;;;9.45;7.53;;;;;;;18.95;100.00;101062.31;4989067;28;20564;-43
2022/07/01 05:45:45;;;;;;;8.93;7.53;;;;;;;18.76;100.00;101064.53;4989691;28;20185;-41
2022/07/01 05:48:10;;;;;;;6.80;6.20;;;;;;;18.81;100.00;101073.28;4990505;28;20228;-41
2022/07/01 05:50:36;;;;;;;9.32;7.00;;;;;;;18.61;100.00;101080.06;4987159;28;20196;-43
2022/07/01 05:53:02;;;;;;;7.85;7.15;;;;;;;18.68;100.00;101081.38;4985463;28;20272;-42
2022/07/01 05:55:27;;;;;;;9.98;7.47;;;;;;;18.60;100.00;101084.59;4990770;28;20170;-42
2022/07/01 05:57:53;;;;;;;16.98;9.02;;;;;;;18.33;100.00;101114.44;4990483;28;20189;-42
2022/07/01 06:00:19;;;;;;;20.40;8.43;;;;;;;18.08;100.00;101126.91;4990134;28;20221;-42
2022/07/01 06:02:44;;;;;;;18.95;8.40;;;;;;;17.98;100.00;101144.75;4990232;28;20159;-43
2022/07/01 06:05:09;;;;;;;14.65;7.30;;;;;;;17.86;100.00;101141.00;4990003;28;20177;-42
2022/07/01 06:07:35;;;;;;;15.13;7.55;;;;;;;17.57;100.00;101152.75;4993190;28;20263;-42
2022/07/01 06:10:01;;;;;;;22.35;7.28;;;;;;;17.73;100.00;101149.94;4994266;28;20503;-42
2022/07/01 06:12:26;;;;;;;19.90;8.40;;;;;;;17.62;100.00;101137.97;4994295;28;20165;-43
2022/07/01 06:14:52;;;;;;;18.08;7.70;;;;;;;17.52;100.00;101141.34;4994366;28;20260;-41
2022/07/01 06:17:17;;;;;;;16.10;6.85;;;;;;;17.50;100.00;101153.13;4976533;28;20193;-42
2022/07/01 06:19:43;;;;;;;16.67;6.78;;;;;;;17.49;100.00;101161.34;4994376;28;20657;-42
2022/07/01 06:22:09;;;;;;;18.92;7.05;;;;;;;17.45;100.00;101167.94;4994295;28;20165;-43
2022/07/01 06:24:34;;;;;;;13.57;5.35;;;;;;;17.43;100.00;101164.47;4993972;28;20188;-43
2022/07/01 06:27:01;;;;;;;22.40;6.35;;;;;;;17.35;100.00;101153.22;4975144;28;20617;-43
2022/07/01 06:29:30;;;;;;;19.00;5.35;;;;;;;17.25;100.00;101161.00;4991375;28;20166;-41
2022/07/01 06:31:56;;;;;;;21.63;6.40;;;;;;;17.30;100.00;101159.78;4993897;28;20186;-41
2022/07/01 06:34:21;;;;;;;14.50;5.05;;;;;;;17.41;100.00;101174.50;4992609;28;20711;-43
2022/07/01 06:36:47;;;;;;;18.38;5.50;;;;;;;17.36;100.00;101177.50;4994273;28;20212;-43
2022/07/01 06:39:12;;;;;;;15.93;4.50;;;;;;;17.33;100.00;101187.66;4989597;28;20220;-48
2022/07/01 06:41:38;;;;;;;10.40;4.13;;;;;;;17.38;100.00;101197.25;4993417;28;20700;-43
2022/07/01 06:44:04;;;;;;;10.05;4.20;;;;;;;17.30;100.00;101200.41;4993892;28;20338;-42
2022/07/01 06:46:31;;;;;;;13.02;4.30;;;;;;;17.20;100.00;101195.63;4992654;28;20276;-43
2022/07/01 06:48:58;;;;;;;9.00;3.42;;;;;;;17.04;100.00;101220.91;4994163;28;20366;-44
2022/07/01 06:51:23;;;;;;;12.85;4.07;;;;;;;17.06;100.00;101348.06;4982522;28;20181;-45
2022/07/01 06:53:49;;;;;;;9.00;3.40;;;;;;;17.05;100.00;101210.94;4973268;28;20212;-46
2022/07/01 06:56:16;;;;;;;8.50;3.00;;;;;;;17.12;100.00;101208.75;4973083;28;20172;-49
2022/07/01 06:58:42;;;;;;;12.13;4.30;;;;;;;16.95;100.00;101220.59;4973740;28;20171;-47
2022/07/01 07:01:08;;;;;;;9.30;5.03;;;;;;;16.88;100.00;101220.97;4973908;28;20185;-44
2022/07/01 07:03:34;;;;;;;13.57;4.65;;;;;;;16.78;100.00;101222.41;4974172;28;20170;-45
2022/07/01 07:06:00;;;;;;;14.93;4.35;;;;;;;16.67;100.00;101219.47;4974095;28;20618;-47
2022/07/01 07:08:30;;;;;;;14.15;4.13;;;;;;;16.46;100.00;101211.63;4974547;28;20206;-48
2022/07/01 07:10:55;;;;;;;16.80;4.78;;;;;;;16.51;100.00;101218.56;4975069;28;20189;-43
2022/07/01 07:13:21;;;;;;;14.82;4.22;;;;;;;16.51;100.00;101210.47;4968671;28;20193;-44
2022/07/01 07:15:47;;;;;;;15.80;3.53;;;;;;;16.42;100.00;101217.25;4990038;28;20629;-43
2022/07/01 07:18:13;;;;;;;11.48;3.53;;;;;;;16.42;100.00;101206.44;4964963;28;20628;-46
2022/07/01 07:20:38;;;;;;;20.67;4.85;;;;;;;16.50;100.00;101220.41;4992967;28;20551;-47
2022/07/01 07:23:04;;;;;;;13.20;4.10;;;;;;;16.47;100.00;101235.00;4986742;28;20182;-45
2022/07/01 07:25:30;;;;;;;16.50;4.40;;;;;;;16.27;100.00;101252.34;4973581;28;20719;-43
2022/07/01 07:27:55;;;;;;;12.68;4.00;;;;;;;16.28;100.00;101261.31;4984080;28;20209;-47
2022/07/01 07:30:21;;;;;;;9.48;3.30;;;;;;;16.21;100.00;101265.31;4986324;28;20193;-47
2022/07/01 07:32:46;;;;;;;11.82;4.10;;;;;;;16.32;100.00;101268.31;4975364;28;20182;-45
2022/07/01 07:35:12;;;;;;;11.93;3.88;;;;;;;16.22;100.00;101262.53;4974057;28;20240;-44
2022/07/01 07:37:38;;;;;;;18.92;4.70;;;;;;;16.26;100.00;101268.63;4973504;28;20205;-43
2022/07/01 07:40:09;;;;;;;9.18;2.95;;;;;;;16.39;100.00;101279.66;4983011;28;20600;-44
2022/07/01 07:42:39;;;;;;;10.80;3.10;;;;;;;16.27;100.00;101282.06;4987103;28;20207;-49
2022/07/01 07:45:06;;;;;;;14.63;3.55;;;;;;;16.20;100.00;101285.19;4984647;28;20541;-42
2022/07/01 07:47:35;;;;;;;11.43;3.05;;;;;;;16.10;100.00;101283.97;4959142;28;20245;-43
2022/07/01 07:50:02;;;;;;;13.05;2.88;;;;;;;16.02;100.00;101276.25;4992610;28;20173;-43
2022/07/01 07:52:28;;;;;;;11.13;2.72;;;;;;;16.08;100.00;101253.44;4974549;28;20174;-47
2022/07/01 07:54:54;;;;;;;11.27;3.38;;;;;;;16.06;100.00;101251.66;4972482;28;20174;-50
2022/07/01 07:57:19;;;;;;;11.52;2.40;;;;;;;16.13;100.00;101249.50;4973000;28;20237;-48
2022/07/01 07:59:45;;;;;;;10.55;2.15;;;;;;;15.94;100.00;101236.13;4973109;28;20158;-44
2022/07/01 08:02:11;;;;;;;8.07;2.22;;;;;;;15.78;100.00;101252.28;4973136;28;20173;-45
2022/07/01 08:04:36;;;;;;;6.82;2.00;;;;;;;15.88;100.00;101235.59;4973174;28;20244;-45
2022/07/01 08:07:02;;;;;;;7.30;1.90;;;;;;;15.86;100.00;101235.66;4972546;28;20206;-48
2022/07/01 08:09:28;;;;;;;5.97;1.98;;;;;;;15.77;100.00;101230.78;4972987;28;20187;-44
2022/07/01 08:11:53;;;;;;;7.25;1.88;;;;;;;15.72;100.00;101236.41;4972612;28;20166;-45
2022/07/01 08:14:19;;;;;;;6.85;1.85;;;;;;;15.81;100.00;101213.44;4973040;28;20657;-45
2022/07/01 08:16:44;;;;;;;6.68;1.85;;;;;;;15.87;100.00;101215.78;4972306;28;20202;-48
2022/07/01 08:19:10;;;;;;;10.43;1.90;;;;;;;15.80;100.00;101208.97;4972820;28;20186;-44
2022/07/01 08:21:35;;;;;;;6.13;1.48;;;;;;;15.83;100.00;101176.38;4972694;28;20205;-44
2022/07/01 08:24:01;;;;;;;7.32;1.70;;;;;;;15.69;100.00;101151.94;4972022;28;20186;-45
2022/07/01 08:26:27;;;;;;;11.00;1.60;;;;;;;15.64;100.00;101163.84;4972635;28;20244;-47
2022/07/01 08:28:52;;;;;;;7.47;1.83;;;;;;;15.83;100.00;101212.41;4972062;28;20190;-44
2022/07/01 08:31:18;;;;;;;5.03;1.48;;;;;;;15.98;100.00;101253.03;4972218;28;20173;-45
2022/07/01 08:33:43;;;;;;;5.40;1.48;;;;;;;16.16;100.00;101261.97;4972377;28;20162;-44
2022/07/01 08:36:10;;;;;;;6.55;1.73;;;;;;;16.00;100.00;101259.25;4972346;28;20638;-45
2022/07/01 08:38:36;;;;;;;7.63;1.63;;;;;;;16.06;100.00;101254.38;4972429;28;20249;-44
2022/07/01 08:41:04;;;;;;;4.72;1.73;;;;;;;15.96;100.00;101269.38;4972795;28;20186;-44
2022/07/01 08:43:30;;;;;;;5.97;1.60;;;;;;;15.92;100.00;101285.78;4972161;28;20200;-45
2022/07/01 08:45:58;;;;;;;3.35;1.38;;;;;;;15.84;100.00;101288.91;4972108;28;20175;-46
2022/07/01 08:48:24;;;;;;;3.72;1.48;;;;;;;15.83;100.00;101287.16;4971823;28;20214;-48
2022/07/01 08:50:49;;;;;;;5.68;1.55;;;;;;;15.77;100.00;101279.41;4982342;28;20604;-45
2022/07/01 08:53:15;;;;;;;6.75;1.25;;;;;;;15.95;100.00;101282.94;4990011;28;20190;-47
2022/07/01 08:58:29;;;;;;;7.00;1.30;;;;;;;16.12;100.00;101277.50;4991853;28;20201;-43
2022/07/01 09:01:24;;;;;;;5.10;1.15;;;;;;;16.26;100.00;101284.84;4991348;28;20260;-47
2022/07/01 09:03:55;;;;;;;3.65;1.45;;;;;;;17.03;100.00;101277.84;4990918;28;20165;-43
2022/07/01 09:06:27;;;;;;;2.58;1.33;;;;;;;17.45;100.00;101273.59;4991317;28;20197;-45
2022/07/01 09:08:53;;;;;;;2.83;1.20;;;;;;;17.42;100.00;101285.47;4991088;28;20669;-45
2022/07/01 09:11:24;;;;;;;3.92;1.40;;;;;;;17.58;100.00;101266.47;4991414;28;20165;-49
2022/07/01 09:14:08;;;;;;;3.53;1.20;;;;;;;17.72;100.00;101257.47;4990778;28;20177;-45
2022/07/01 09:16:48;;;;;;;4.32;1.38;;;;;;;17.47;100.00;101261.69;4990639;28;20617;-45
2022/07/01 09:19:16;;;;;;;4.95;1.20;;;;;;;17.74;100.00;101270.94;4991195;28;20260;-43
2022/07/01 09:21:42;;;;;;;2.95;0.85;;;;;;;17.59;100.00;101275.47;4990710;28;20162;-45
2022/07/01 09:24:24;;;;;;;4.75;1.00;;;;;;;17.49;100.00;101291.38;4990461;28;20200;-46
2022/07/01 09:27:10;;;;;;;3.72;0.90;;;;;;;17.12;100.00;101301.69;4989548;28;20259;-44
2022/07/01 09:29:38;;;;;;;2.30;0.95;;;;;;;17.15;100.00;101295.22;4985770;28;20197;-47
2022/07/01 09:32:06;;;;;;;4.40;1.40;;;;;;;17.16;100.00;101281.59;4984215;28;20189;-45
2022/07/01 09:34:46;;;;;;;3.78;1.35;;;;;;;17.15;100.00;101287.97;4990098;28;20670;-44
2022/07/01 09:37:17;;;;;;;3.22;1.00;;;;;;;17.21;100.00;101290.31;4990800;28;20702;-48
2022/07/01 09:39:42;;;;;;;2.45;0.77;;;;;;;17.07;100.00;101291.13;4990733;28;20680;-45
2022/07/01 09:42:08;;;;;;;3.33;1.02;;;;;;;17.13;100.00;101286.31;4988378;28;20185;-46
2022/07/01 09:44:33;;;;;;;4.15;1.20;;;;;;;17.05;100.00;101279.53;4990625;28;20184;-45
2022/07/01 09:47:01;;;;;;;4.97;1.23;;;;;;;17.11;100.00;101286.41;4990347;28;20213;-44
2022/07/01 09:49:27;;;;;;;4.13;1.00;;;;;;;17.10;100.00;101292.78;4990303;28;20170;-45
2022/07/01 09:51:52;;;;;;;5.43;1.25;;;;;;;17.21;100.00;101287.63;4977063;28;20201;-46
2022/07/01 09:54:18;;;;;;;3.70;1.17;;;;;;;17.24;100.00;101289.28;4975254;28;20615;-44
2022/07/01 09:56:44;;;;;;;3.03;1.00;;;;;;;17.25;100.00;101300.03;4978618;28;20776;-44
2022/07/01 09:59:10;;;;;;;2.45;1.05;;;;;;;17.34;100.00;101312.16;4982976;28;20193;-44
2022/07/01 10:01:39;;;;;;;3.17;1.25;;;;;;;17.40;100.00;101313.59;4978898;28;20193;-45
2022/07/01 10:04:07;;;;;;;3.33;1.00;;;;;;;17.17;100.00;101299.59;4982268;28;20170;-44
2022/07/01 10:06:50;;;;;;;5.60;1.63;;;;;;;17.16;100.00;101296.97;4990511;28;20541;-47
2022/07/01 10:09:32;;;;;;;3.53;1.30;;;;;;;17.56;100.00;101292.78;4971480;28;20185;-43
2022/07/01 10:12:35;;;;;;;3.20;1.00;;;;;;;18.13;98.71;101286.63;4971419;28;20166;-44
2022/07/01 10:15:05;;;;;;;5.93;1.52;;;;;;;18.14;98.14;101299.19;4970616;28;20195;-44
2022/07/01 10:17:36;;;;;;;6.80;1.60;;;;;;;17.80;97.80;101300.38;4971056;28;20747;-47
2022/07/01 10:20:13;;;;;;;3.13;1.02;;;;;;;17.70;98.28;101316.31;4971170;28;20305;-44
2022/07/01 10:22:40;;;;;;;3.97;1.00;;;;;;;17.76;98.33;101310.53;4971153;28;20219;-44
2022/07/01 10:25:45;;;;;;;1.52;0.80;;;;;;;17.60;98.83;101323.25;4970557;28;20196;-45
2022/07/01 10:28:43;;;;;;;5.53;1.38;;;;;;;17.52;99.24;101321.00;4971253;28;20576;-45
2022/07/01 10:31:15;;;;;;;6.88;1.25;;;;;;;17.24;98.14;101335.31;4981609;28;20185;-45
2022/07/01 10:33:48;;;;;;;3.55;1.20;;;;;;;17.20;98.03;101334.59;4985131;28;20655;-43
2022/07/01 10:36:23;;;;;;;2.72;0.90;;;;;;;17.10;97.82;101344.25;4987232;28;20199;-45
2022/07/01 10:39:06;;;;;;;5.10;1.27;;;;;;;17.07;98.33;101337.13;4985986;28;20222;-44
2022/07/01 10:41:53;;;;;;;4.80;1.02;;;;;;;17.12;98.51;101344.13;4979786;28;20193;-46
2022/07/01 10:44:21;;;;;;;9.10;1.58;;;;;;;16.91;98.69;101360.66;4983906;28;20252;-43
2022/07/01 10:46:57;;;;;;;3.40;1.30;;;;;;;17.02;97.98;101351.91;4988060;28;20296;-46
2022/07/01 10:49:35;;;;;;;4.20;1.35;;;;;;;16.95;98.83;101348.69;4989180;28;20715;-45
2022/07/01 10:52:04;;;;;;;4.85;1.30;;;;;;;16.83;98.41;101352.94;4985382;28;20185;-47
2022/07/01 10:54:36;;;;;;;3.15;1.15;;;;;;;16.85;98.82;101356.44;4993267;28;20279;-44
2022/07/01 10:57:20;;;;;;;1.52;0.88;;;;;;;16.83;99.97;101358.34;4993979;28;20205;-47
2022/07/01 10:59:51;;;;;;;2.63;1.05;;;;;;;16.85;99.09;101378.09;4993493;28;20166;-48
2022/07/01 11:02:19;;;;;;;7.05;1.40;;;;;;;16.61;99.69;101374.88;4993203;28;20258;-46
2022/07/01 11:04:45;;;;;;;6.13;1.40;;;;;;;16.71;99.61;101380.66;4992767;28;20181;-48
2022/07/01 11:07:11;;;;;;;2.15;1.17;;;;;;;16.67;99.93;101400.72;4993238;28;20224;-46
2022/07/01 11:09:37;;;;;;;2.92;1.25;;;;;;;16.51;99.48;101403.41;4992538;28;20231;-47
2022/07/01 11:12:04;;;;;;;7.20;1.42;;;;;;;16.44;99.99;101405.56;4991502;28;20479;-46
2022/07/01 11:14:34;;;;;;;4.18;1.40;;;;;;;16.33;100.00;101410.66;4990861;28;20177;-47
2022/07/01 11:17:02;;;;;;;7.53;1.92;;;;;;;16.23;100.00;101420.22;4992990;28;20201;-47
2022/07/01 11:19:27;;;;;;;4.28;1.77;;;;;;;16.21;100.00;101420.28;4993530;28;20307;-46
2022/07/01 11:21:53;;;;;;;8.23;1.63;;;;;;;16.28;100.00;101428.97;4993206;28;20221;-46
2022/07/01 11:24:21;;;;;;;4.20;1.63;;;;;;;16.30;100.00;101421.63;4992576;28;20193;-48
2022/07/01 11:26:47;;;;;;;3.70;1.33;;;;;;;16.47;100.00;101424.31;4992162;28;20262;-48
2022/07/01 11:29:14;;;;;;;6.95;1.45;;;;;;;16.49;100.00;101424.25;4992760;28;20189;-46